• Join FlightAware (Why Join?)
  • Login
  • US Flag 
03:12PM EDT


 

Airport Tracker/Info


-or-


 

Live Flight TrackerFlight Track Log ✈ CTL61 ✈ 17-Apr-2013 ✈ KBLF - KCRW

Flight Track Log - Related Links

Times and Time Zones

All times are in EDT time to prevent confusion due to time zone crossing. See the CTL61 flight status page for this flight to view local times or setup timezone preferences in your user account.

Time Position Orientation Groundspeed Altitude Reporting Facility
EDT Latitude Longitude Course Direction KTS MPH feet Rate Location/Type
10:46PM 37.3514 -81.2636 345° North 141 162 5,400  Level Indianapolis Center
10:47PM 37.3900 -81.2769 345° North 145 167 6,000 240 Climbing Indianapolis Center
10:48PM 37.4342 -81.2928 344° North 164 189 6,000  Level Indianapolis Center
10:49PM 37.4919 -81.3122 345° North 178 205 6,100  Climbing Indianapolis Center
10:50PM 37.5389 -81.3311 342° North 180 207 6,000 -60 Descending Indianapolis Center
10:51PM 37.5463 -81.2943 343° North  Level FlightAware Approximate
10:51PM 37.5836 -81.3517 340° North 177 204 6,000  Level Indianapolis Center
10:52PM 37.6319 -81.3636 349° North 180 207 6,100  Climbing Indianapolis Center
10:54PM 37.6886 -81.3806 347° North 180 207 6,100 -60 Level Indianapolis Center
10:55PM 37.7369 -81.3953 346° North 183 211 6,000  Descending Indianapolis Center
10:56PM 37.7858 -81.4092 347° North 182 209 6,100  Climbing Indianapolis Center
10:57PM 37.8397 -81.4261 346° North 183 211 6,100  Level Indianapolis Center
10:58PM 37.8908 -81.4428 346° North 188 216 6,100  Level Indianapolis Center
10:59PM 37.9419 -81.4592 346° North 189 217 6,100  Level Indianapolis Center
11:00PM 37.9933 -81.4750 346° North 190 219 6,100  Level Indianapolis Center
11:01PM 38.0436 -81.4903 347° North 187 215 6,100 -300 Level Indianapolis Center
11:02PM 38.0967 -81.5078 345° North 193 222 5,600 -660 Descending Indianapolis Center
11:03PM 38.1511 -81.5297 342° North 202 232 4,800 -1,020 Descending Indianapolis Center
11:04PM 38.2053 -81.5544 340° North 205 236 3,600 -1,020 Descending Indianapolis Center
11:05PM 38.2578 -81.5706 346° North 197 227 2,800 -600 Descending Indianapolis Center
11:06PM 38.3042 -81.5808 350° North 177 204 2,400 -420 Descending Indianapolis Center
11:07PM 38.3500 -81.5636 16° North 150 173 2,000 -480 Descending Indianapolis Center
11:08PM 38.3811 -81.5556 11° North 142 163 1,500 -420 Descending Indianapolis Center
11:09PM 38.3847 -81.5867 278° West 127 146 1,200 -300 Descending Indianapolis Center